createdAt,value
2017-03-27T00:00:54.294Z,0
2017-03-27T00:02:05.682Z,0
2017-03-27T00:03:16.679Z,0
2017-03-27T00:04:27.880Z,0
2017-03-27T00:05:38.864Z,0
2017-03-27T00:06:50.065Z,0
2017-03-27T00:08:01.056Z,0
2017-03-27T00:09:12.053Z,0
2017-03-27T00:10:23.030Z,0
2017-03-27T00:11:34.481Z,0
2017-03-27T00:12:45.679Z,0
2017-03-27T00:13:56.670Z,0
2017-03-27T00:15:07.658Z,0
2017-03-27T00:16:18.648Z,0
2017-03-27T00:17:29.643Z,0
2017-03-27T00:18:40.637Z,0
2017-03-27T00:19:51.636Z,0
2017-03-27T00:21:03.026Z,0
2017-03-27T00:22:14.262Z,0
2017-03-27T00:23:25.250Z,0
2017-03-27T00:24:36.231Z,0
2017-03-27T00:25:47.209Z,0
2017-03-27T00:26:58.199Z,0
2017-03-27T00:28:09.231Z,0
2017-03-27T00:29:20.219Z,0
2017-03-27T00:30:31.402Z,0
2017-03-27T00:31:42.393Z,0
2017-03-27T00:32:53.392Z,0
2017-03-27T00:34:04.380Z,0
2017-03-27T00:35:15.570Z,0
2017-03-27T00:36:26.760Z,0
2017-03-27T00:37:37.945Z,0
2017-03-27T00:38:48.946Z,0
2017-03-27T00:39:59.940Z,0
2017-03-27T00:41:11.161Z,0
2017-03-27T00:42:22.351Z,0
2017-03-27T00:43:33.591Z,0
2017-03-27T00:44:44.578Z,0
2017-03-27T00:45:55.760Z,0
2017-03-27T00:47:06.753Z,0
2017-03-27T00:48:17.750Z,0
2017-03-27T00:49:28.747Z,0
2017-03-27T00:50:39.736Z,0
2017-03-27T00:51:50.727Z,0
2017-03-27T00:53:01.717Z,0
2017-03-27T00:54:12.954Z,0
2017-03-27T00:55:23.951Z,0
2017-03-27T00:56:35.346Z,0
2017-03-27T00:57:46.341Z,0
2017-03-27T00:58:57.345Z,0
2017-03-27T01:00:08.338Z,0
2017-03-27T01:01:19.322Z,0
2017-03-27T01:02:30.302Z,0
2017-03-27T01:03:41.526Z,0
2017-03-27T01:04:52.764Z,0
2017-03-27T01:06:03.756Z,0
2017-03-27T01:07:14.741Z,0
2017-03-27T01:08:25.731Z,0
2017-03-27T01:09:36.719Z,0
2017-03-27T01:10:47.711Z,0
2017-03-27T01:11:58.906Z,0
2017-03-27T01:13:09.897Z,0
2017-03-27T01:14:20.894Z,0
2017-03-27T01:15:31.876Z,0
2017-03-27T01:16:43.063Z,0
2017-03-27T01:17:54.054Z,0
2017-03-27T01:19:05.058Z,0
2017-03-27T01:20:16.300Z,0
2017-03-27T01:21:27.285Z,0
2017-03-27T01:22:38.476Z,0
2017-03-27T01:23:49.476Z,0
2017-03-27T01:25:00.471Z,0
2017-03-27T01:26:11.666Z,0
2017-03-27T01:27:22.650Z,0
2017-03-27T01:28:33.632Z,0
2017-03-27T01:29:44.627Z,0
2017-03-27T01:30:55.815Z,0
2017-03-27T01:32:06.804Z,0
2017-03-27T01:33:17.792Z,0
2017-03-27T01:34:28.788Z,0
2017-03-27T01:35:39.831Z,0
2017-03-27T01:36:50.817Z,0
2017-03-27T01:38:01.816Z,0
2017-03-27T01:39:12.800Z,0
2017-03-27T01:40:23.994Z,0
2017-03-27T01:41:35.183Z,0
2017-03-27T01:42:46.159Z,0
2017-03-27T01:43:57.159Z,0
2017-03-27T01:45:08.142Z,0
2017-03-27T01:46:19.327Z,0
2017-03-27T01:47:30.321Z,0
2017-03-27T01:48:41.314Z,0
2017-03-27T01:49:52.504Z,0
2017-03-27T01:51:03.689Z,0
2017-03-27T01:52:14.681Z,0
2017-03-27T01:53:25.710Z,0
2017-03-27T01:54:36.699Z,0
2017-03-27T01:55:47.934Z,0
2017-03-27T01:56:58.957Z,0
2017-03-27T01:58:10.140Z,0
2017-03-27T01:59:21.354Z,0
2017-03-27T02:00:32.344Z,0
2017-03-27T02:01:43.318Z,0
2017-03-27T02:02:54.314Z,0
2017-03-27T02:04:05.303Z,0
2017-03-27T02:05:16.493Z,0
2017-03-27T02:06:27.683Z,0
2017-03-27T02:07:38.665Z,0
2017-03-27T02:08:49.658Z,0
2017-03-27T02:10:00.643Z,0
2017-03-27T02:11:11.631Z,0
2017-03-27T02:12:22.605Z,0
2017-03-27T02:13:33.598Z,0
2017-03-27T02:14:44.585Z,0
2017-03-27T02:15:55.574Z,0
2017-03-27T02:17:06.558Z,0
2017-03-27T02:18:17.544Z,0
2017-03-27T02:19:28.538Z,0
2017-03-27T02:20:39.721Z,0
2017-03-27T02:21:50.960Z,0
2017-03-27T02:23:01.949Z,0
2017-03-27T02:24:13.367Z,0
2017-03-27T02:25:24.351Z,0
2017-03-27T02:26:35.331Z,0
2017-03-27T02:27:46.527Z,0
2017-03-27T02:28:57.514Z,0
2017-03-27T02:30:08.501Z,0
2017-03-27T02:31:19.491Z,0
2017-03-27T02:32:30.477Z,0
2017-03-27T02:33:41.665Z,0
2017-03-27T02:34:52.660Z,0
2017-03-27T02:36:03.850Z,0
2017-03-27T02:37:14.891Z,0
2017-03-27T02:38:26.083Z,0
2017-03-27T02:39:37.072Z,0
2017-03-27T02:40:48.068Z,0
2017-03-27T02:41:59.051Z,0
2017-03-27T02:43:10.041Z,0
2017-03-27T02:44:21.032Z,0
2017-03-27T02:45:32.017Z,0
2017-03-27T02:46:43.000Z,0
2017-03-27T02:47:53.991Z,0
2017-03-27T02:49:05.208Z,0
2017-03-27T02:50:16.200Z,0
2017-03-27T02:51:27.187Z,0
2017-03-27T02:52:38.227Z,0
2017-03-27T02:53:49.419Z,0
2017-03-27T02:55:00.437Z,0
2017-03-27T02:56:11.429Z,0
2017-03-27T02:57:22.614Z,0
2017-03-27T02:58:33.801Z,0
2017-03-27T02:59:45.000Z,0
2017-03-27T03:00:56.188Z,0
2017-03-27T03:02:07.176Z,0
2017-03-27T03:03:18.169Z,0
2017-03-27T03:04:29.160Z,0
2017-03-27T03:05:40.147Z,0
2017-03-27T03:06:51.139Z,0
2017-03-27T03:08:02.387Z,0
2017-03-27T03:09:13.389Z,0
2017-03-27T03:10:24.584Z,0
2017-03-27T03:11:35.769Z,0
2017-03-27T03:12:46.768Z,0
2017-03-27T03:13:57.758Z,0
2017-03-27T03:15:08.745Z,0
2017-03-27T03:16:19.725Z,0
2017-03-27T03:17:30.709Z,0
2017-03-27T03:18:42.355Z,0
2017-03-27T03:19:53.551Z,0
2017-03-27T03:21:04.538Z,0
2017-03-27T03:22:15.537Z,0
2017-03-27T03:23:26.537Z,0
2017-03-27T03:24:37.526Z,0
2017-03-27T03:25:48.520Z,0
2017-03-27T03:26:59.506Z,0
2017-03-27T03:28:10.494Z,0
2017-03-27T03:29:21.533Z,0
2017-03-27T03:30:32.728Z,0
2017-03-27T03:31:43.915Z,0
2017-03-27T03:32:55.102Z,0
2017-03-27T03:34:06.091Z,0
2017-03-27T03:35:17.078Z,0
2017-03-27T03:36:28.073Z,0
2017-03-27T03:37:39.070Z,0
2017-03-27T03:38:50.057Z,0
2017-03-27T03:40:01.115Z,0
2017-03-27T03:41:12.111Z,0
2017-03-27T03:42:23.300Z,0
2017-03-27T03:43:34.288Z,0
2017-03-27T03:44:45.473Z,0
2017-03-27T03:45:56.451Z,0
2017-03-27T03:47:07.445Z,0
2017-03-27T03:48:18.436Z,0
2017-03-27T03:49:29.430Z,0
2017-03-27T03:50:40.413Z,0
2017-03-27T03:51:51.393Z,0
2017-03-27T03:53:02.388Z,0
2017-03-27T03:54:13.381Z,0
2017-03-27T03:55:24.613Z,0
2017-03-27T03:56:35.593Z,0
2017-03-27T03:57:46.598Z,0
2017-03-27T03:58:57.585Z,0
2017-03-27T04:00:08.571Z,0
2017-03-27T04:01:19.554Z,0
2017-03-27T04:02:30.753Z,0
2017-03-27T04:03:41.746Z,0
2017-03-27T04:04:52.940Z,0
2017-03-27T04:06:03.988Z,0
2017-03-27T04:07:14.976Z,0
2017-03-27T04:08:26.170Z,0
2017-03-27T04:09:37.168Z,0
2017-03-27T04:10:48.165Z,0
2017-03-27T04:11:59.158Z,0
2017-03-27T04:13:10.161Z,0
2017-03-27T04:14:21.151Z,0
2017-03-27T04:15:32.137Z,0
2017-03-27T04:16:43.174Z,0
2017-03-27T04:17:54.168Z,0
2017-03-27T04:19:05.165Z,0
2017-03-27T04:20:16.149Z,0
2017-03-27T04:21:27.142Z,0
2017-03-27T04:22:38.326Z,0
2017-03-27T04:23:49.325Z,0
2017-03-27T04:25:00.316Z,0
2017-03-27T04:26:11.309Z,0
2017-03-27T04:27:22.296Z,0
2017-03-27T04:28:33.284Z,0
2017-03-27T04:29:44.284Z,0
2017-03-27T04:30:55.266Z,0
2017-03-27T04:32:06.263Z,0
2017-03-27T04:33:17.250Z,0
2017-03-27T04:34:28.251Z,0
2017-03-27T04:35:39.242Z,0
2017-03-27T04:36:50.230Z,0
2017-03-27T04:38:01.216Z,0
2017-03-27T04:39:12.413Z,0
2017-03-27T04:40:23.392Z,0
2017-03-27T04:41:34.376Z,0
2017-03-27T04:42:45.369Z,0
2017-03-27T04:43:56.566Z,0
2017-03-27T04:45:07.550Z,0
2017-03-27T04:46:18.528Z,0
2017-03-27T04:47:29.770Z,0
2017-03-27T04:48:40.772Z,0
2017-03-27T04:49:51.752Z,0
2017-03-27T04:51:02.945Z,0
2017-03-27T04:52:14.128Z,0
2017-03-27T04:53:25.109Z,0
2017-03-27T04:54:36.100Z,0
2017-03-27T04:55:47.083Z,0
2017-03-27T04:56:58.274Z,0
2017-03-27T04:58:09.338Z,0
2017-03-27T04:59:20.331Z,0
2017-03-27T05:00:31.311Z,0
2017-03-27T05:01:42.302Z,0
2017-03-27T05:02:53.495Z,5
2017-03-27T05:04:04.682Z,5
2017-03-27T05:05:15.875Z,5
2017-03-27T05:06:27.066Z,5
2017-03-27T05:07:38.062Z,5
2017-03-27T05:08:49.059Z,5
2017-03-27T05:10:00.052Z,10
2017-03-27T05:11:11.437Z,10
2017-03-27T05:12:22.626Z,10
2017-03-27T05:13:33.874Z,10
2017-03-27T05:14:44.867Z,15
2017-03-27T05:15:55.853Z,15
2017-03-27T05:17:06.840Z,20
2017-03-27T05:18:18.026Z,20
2017-03-27T05:19:29.021Z,20
2017-03-27T05:20:40.210Z,25
2017-03-27T05:21:51.196Z,25
2017-03-27T05:23:02.180Z,30
2017-03-27T05:24:13.383Z,30
2017-03-27T05:25:24.379Z,35
2017-03-27T05:26:35.373Z,35
2017-03-27T05:27:46.370Z,40
2017-03-27T05:28:57.604Z,45
2017-03-27T05:30:08.595Z,45
2017-03-27T05:31:19.583Z,50
2017-03-27T05:32:30.604Z,50
2017-03-27T05:33:41.605Z,55
2017-03-27T05:34:52.591Z,60
2017-03-27T05:36:03.579Z,80
2017-03-27T05:37:14.574Z,130
2017-03-27T05:38:25.764Z,175
2017-03-27T05:39:36.757Z,165
2017-03-27T05:40:47.750Z,205
2017-03-27T05:41:58.730Z,300
2017-03-27T05:43:09.719Z,345
2017-03-27T05:44:20.708Z,335
2017-03-27T05:45:31.703Z,220
2017-03-27T05:46:43.088Z,270
2017-03-27T05:47:54.085Z,355
2017-03-27T05:49:05.293Z,220
2017-03-27T05:50:16.476Z,140
2017-03-27T05:51:27.460Z,235
2017-03-27T05:52:38.451Z,305
2017-03-27T05:53:49.432Z,290
2017-03-27T05:55:00.664Z,355
2017-03-27T05:56:11.851Z,480
2017-03-27T05:57:22.826Z,505
2017-03-27T05:58:34.015Z,275
2017-03-27T05:59:45.018Z,200
2017-03-27T06:00:56.003Z,385
2017-03-27T06:02:06.982Z,400
2017-03-27T06:03:17.975Z,385
2017-03-27T06:04:28.973Z,335
2017-03-27T06:05:39.960Z,400
2017-03-27T06:06:50.940Z,505
2017-03-27T06:08:01.939Z,370
2017-03-27T06:09:12.929Z,490
2017-03-27T06:10:24.384Z,590
2017-03-27T06:11:35.369Z,610
2017-03-27T06:12:46.372Z,395
2017-03-27T06:13:57.373Z,510
2017-03-27T06:15:08.369Z,445
2017-03-27T06:16:19.361Z,385
2017-03-27T06:17:30.348Z,230
2017-03-27T06:18:41.547Z,370
2017-03-27T06:19:52.532Z,680
2017-03-27T06:21:03.519Z,625
2017-03-27T06:22:14.507Z,535
2017-03-27T06:23:25.506Z,540
2017-03-27T06:24:36.501Z,560
2017-03-27T06:25:47.496Z,670
2017-03-27T06:26:58.487Z,675
2017-03-27T06:28:09.681Z,685
2017-03-27T06:29:20.676Z,790
2017-03-27T06:30:31.665Z,690
2017-03-27T06:31:42.717Z,695
2017-03-27T06:32:53.721Z,685
2017-03-27T06:34:04.722Z,685
2017-03-27T06:35:15.929Z,830
2017-03-27T06:36:26.914Z,945
2017-03-27T06:37:37.910Z,800
2017-03-27T06:38:48.902Z,475
2017-03-27T06:40:00.101Z,495
2017-03-27T06:41:11.094Z,605
2017-03-27T06:42:22.141Z,660
2017-03-27T06:43:33.131Z,600
2017-03-27T06:44:44.122Z,670
2017-03-27T06:45:55.120Z,875
2017-03-27T06:47:06.110Z,910
2017-03-27T06:48:17.099Z,1370
2017-03-27T06:49:28.100Z,1240
2017-03-27T06:50:39.089Z,1295
2017-03-27T06:51:50.085Z,1810
2017-03-27T06:53:01.088Z,1970
2017-03-27T06:54:12.083Z,1970
2017-03-27T06:55:23.068Z,2000
2017-03-27T06:56:34.063Z,2120
2017-03-27T06:57:45.063Z,2135
2017-03-27T06:58:56.061Z,1995
2017-03-27T07:00:07.105Z,2015
2017-03-27T07:01:18.300Z,2205
2017-03-27T07:02:29.351Z,2080
2017-03-27T07:03:40.601Z,2135
2017-03-27T07:04:51.608Z,2210
2017-03-27T07:06:02.821Z,2230
2017-03-27T07:07:13.825Z,2235
2017-03-27T07:08:24.827Z,2150
2017-03-27T07:09:36.039Z,2305
2017-03-27T07:10:47.047Z,2430
2017-03-27T07:11:58.251Z,2130
2017-03-27T07:13:09.478Z,1990
2017-03-27T07:14:20.939Z,2305
2017-03-27T07:15:31.943Z,2265
2017-03-27T07:16:42.954Z,2090
2017-03-27T07:17:53.958Z,2190
2017-03-27T07:19:04.966Z,2410
2017-03-27T07:20:15.974Z,2510
2017-03-27T07:21:27.178Z,2490
2017-03-27T07:22:38.201Z,2160
2017-03-27T07:23:49.212Z,1600
2017-03-27T07:25:00.490Z,1765
2017-03-27T07:26:11.498Z,2180
2017-03-27T07:27:22.513Z,2385
2017-03-27T07:28:33.566Z,2545
2017-03-27T07:29:44.576Z,2645
2017-03-27T07:30:55.625Z,2575
2017-03-27T07:32:06.648Z,2275
2017-03-27T07:33:17.866Z,1935
2017-03-27T07:34:28.881Z,1895
2017-03-27T07:35:39.909Z,1935
2017-03-27T07:36:50.915Z,1850
2017-03-27T07:38:02.121Z,1510
2017-03-27T07:39:13.148Z,1685
2017-03-27T07:40:24.178Z,2080
2017-03-27T07:41:35.240Z,2000
2017-03-27T07:42:46.291Z,2085
2017-03-27T07:43:57.502Z,2050
2017-03-27T07:45:08.504Z,2190
2017-03-27T07:46:19.515Z,2685
2017-03-27T07:47:30.518Z,2450
2017-03-27T07:48:41.536Z,2495
2017-03-27T07:49:52.540Z,2645
2017-03-27T07:51:03.745Z,2275
2017-03-27T07:52:14.808Z,2560
2017-03-27T07:53:25.818Z,2795
2017-03-27T07:54:37.035Z,2630
2017-03-27T07:55:48.052Z,2620
2017-03-27T07:56:59.463Z,2775
2017-03-27T07:58:10.479Z,2770
2017-03-27T07:59:21.498Z,2745
2017-03-27T08:00:32.505Z,2850
2017-03-27T08:01:43.713Z,2920
2017-03-27T08:02:54.815Z,2860
2017-03-27T08:04:05.831Z,2895
2017-03-27T08:05:16.844Z,2835
2017-03-27T08:06:28.052Z,2785
2017-03-27T08:07:39.051Z,2895
2017-03-27T08:08:50.064Z,2885
2017-03-27T08:10:01.093Z,2835
2017-03-27T08:11:12.098Z,2860
2017-03-27T08:12:23.316Z,2885
2017-03-27T08:13:34.341Z,2880
2017-03-27T08:14:45.553Z,2875
2017-03-27T08:15:56.769Z,2690
2017-03-27T08:17:07.784Z,2730
2017-03-27T08:18:18.799Z,2865
2017-03-27T08:19:29.822Z,3005
2017-03-27T08:20:40.851Z,2725
2017-03-27T08:21:51.858Z,2520
2017-03-27T08:23:03.075Z,3030
2017-03-27T08:24:14.547Z,3205
2017-03-27T08:25:25.555Z,3015
2017-03-27T08:26:36.574Z,2935
2017-03-27T08:27:47.594Z,2930
2017-03-27T08:28:58.615Z,2900
2017-03-27T08:30:09.645Z,3030
2017-03-27T08:31:20.661Z,2975
2017-03-27T08:32:31.682Z,2750
2017-03-27T08:33:42.692Z,2915
2017-03-27T08:34:53.953Z,2790
2017-03-27T08:36:04.975Z,3025
2017-03-27T08:37:15.996Z,3005
2017-03-27T08:38:27.021Z,2955
2017-03-27T08:39:38.035Z,2870
2017-03-27T08:40:49.047Z,2975
2017-03-27T08:42:00.081Z,2845
2017-03-27T08:43:11.100Z,2815
2017-03-27T08:44:22.114Z,2620
2017-03-27T08:45:33.384Z,2785
2017-03-27T08:46:44.397Z,2760
2017-03-27T08:47:55.409Z,2635
2017-03-27T08:49:06.439Z,2640
2017-03-27T08:50:17.493Z,2785
2017-03-27T08:51:28.527Z,2860
2017-03-27T08:52:39.545Z,3030
2017-03-27T08:53:50.561Z,2870
2017-03-27T08:55:01.590Z,2950
2017-03-27T08:56:12.598Z,2920
2017-03-27T08:57:23.605Z,2970
2017-03-27T08:58:34.625Z,3095
2017-03-27T08:59:45.851Z,3085
2017-03-27T09:00:57.149Z,3025
2017-03-27T09:02:08.195Z,3080
2017-03-27T09:03:19.223Z,3060
2017-03-27T09:04:30.241Z,2865
2017-03-27T09:05:41.252Z,3010
2017-03-27T09:06:52.267Z,3020
2017-03-27T09:08:03.285Z,3020
2017-03-27T09:09:14.311Z,3030
2017-03-27T09:10:25.525Z,3025
2017-03-27T09:11:36.750Z,2920
2017-03-27T09:12:47.773Z,2705
2017-03-27T09:13:58.995Z,2750
2017-03-27T09:15:10.014Z,2770
2017-03-27T09:16:21.281Z,2850
2017-03-27T09:17:32.294Z,3010
2017-03-27T09:18:43.321Z,2905
2017-03-27T09:19:54.538Z,2875
2017-03-27T09:21:05.548Z,2885
2017-03-27T09:22:16.579Z,2830
2017-03-27T09:23:27.616Z,2805
2017-03-27T09:24:38.637Z,2800
2017-03-27T09:25:49.646Z,2715
2017-03-27T09:27:00.679Z,2670
2017-03-27T09:28:11.693Z,2765
2017-03-27T09:29:22.711Z,2840
2017-03-27T09:30:33.726Z,2780
2017-03-27T09:31:44.731Z,2650
2017-03-27T09:32:55.752Z,2775
2017-03-27T09:34:06.779Z,2750
2017-03-27T09:35:17.795Z,2615
2017-03-27T09:36:28.795Z,2750
2017-03-27T09:37:39.810Z,2600
2017-03-27T09:38:50.868Z,2645
2017-03-27T09:40:01.895Z,2690
2017-03-27T09:41:12.908Z,2675
2017-03-27T09:42:23.925Z,2705
2017-03-27T09:43:34.974Z,2750
2017-03-27T09:44:46.025Z,2705
2017-03-27T09:45:57.042Z,2770
2017-03-27T09:47:08.302Z,2610
2017-03-27T09:48:19.326Z,2720
2017-03-27T09:49:30.337Z,2835
2017-03-27T09:50:41.343Z,2730
2017-03-27T09:51:52.563Z,2815
2017-03-27T09:53:03.578Z,2880
2017-03-27T09:54:14.601Z,2715
2017-03-27T09:55:25.629Z,2845
2017-03-27T09:56:36.643Z,2860
2017-03-27T09:57:47.865Z,2760
2017-03-27T09:58:58.880Z,2820
2017-03-27T10:00:09.909Z,2745
2017-03-27T10:01:20.920Z,2745
2017-03-27T10:02:31.990Z,2790
2017-03-27T10:03:43.085Z,2670
2017-03-27T10:04:54.122Z,2735
2017-03-27T10:06:05.148Z,2685
2017-03-27T10:07:16.169Z,2670
2017-03-27T10:08:27.398Z,2505
2017-03-27T10:09:38.414Z,2570
2017-03-27T10:10:49.425Z,2450
2017-03-27T10:12:00.638Z,2630
2017-03-27T10:13:11.653Z,2710
2017-03-27T10:14:22.663Z,2545
2017-03-27T10:15:33.684Z,2540
2017-03-27T10:16:44.693Z,2685
2017-03-27T10:17:55.961Z,2570
2017-03-27T10:19:06.990Z,2650
2017-03-27T10:20:18.011Z,2610
2017-03-27T10:21:29.031Z,2610
2017-03-27T10:22:40.043Z,2600
2017-03-27T10:23:51.100Z,2550
2017-03-27T10:25:02.133Z,2505
2017-03-27T10:26:13.150Z,2575
2017-03-27T10:27:24.163Z,2550
2017-03-27T10:28:35.242Z,2645
2017-03-27T10:29:46.254Z,2650
2017-03-27T10:30:57.278Z,2580
2017-03-27T10:32:08.503Z,2560
2017-03-27T10:33:19.528Z,2610
2017-03-27T10:34:30.944Z,2565
2017-03-27T10:35:41.954Z,2530
2017-03-27T10:36:53.171Z,2550
2017-03-27T10:38:04.190Z,2510
2017-03-27T10:39:15.214Z,2460
2017-03-27T10:40:26.228Z,2430
2017-03-27T10:41:37.231Z,2480
2017-03-27T10:42:48.457Z,2480
2017-03-27T10:43:59.475Z,2440
2017-03-27T10:45:10.484Z,2470
2017-03-27T10:46:21.496Z,2445
2017-03-27T10:47:32.508Z,2410
2017-03-27T10:48:43.548Z,2365
2017-03-27T10:49:54.560Z,2430
2017-03-27T10:51:05.583Z,2430
2017-03-27T10:52:16.604Z,2415
2017-03-27T10:53:27.624Z,2450
2017-03-27T10:54:38.640Z,2355
2017-03-27T10:55:49.649Z,2335
2017-03-27T10:57:00.875Z,2340
2017-03-27T10:58:11.889Z,2260
2017-03-27T10:59:23.163Z,2245
2017-03-27T11:00:34.182Z,2300
2017-03-27T11:01:45.406Z,2240
2017-03-27T11:02:56.423Z,2215
2017-03-27T11:04:07.434Z,2220
2017-03-27T11:05:18.470Z,2145
2017-03-27T11:06:29.477Z,2220
2017-03-27T11:07:40.494Z,2210
2017-03-27T11:08:51.501Z,2140
2017-03-27T11:10:02.574Z,2185
2017-03-27T11:11:13.591Z,2105
2017-03-27T11:12:24.590Z,2115
2017-03-27T11:13:35.611Z,2115
2017-03-27T11:14:46.632Z,2115
2017-03-27T11:15:57.641Z,2070
2017-03-27T11:17:08.649Z,2090
2017-03-27T11:18:19.705Z,2045
2017-03-27T11:19:30.726Z,2080
2017-03-27T11:20:41.734Z,2040
2017-03-27T11:21:52.751Z,1975
2017-03-27T11:23:03.773Z,2020
2017-03-27T11:24:14.990Z,1990
2017-03-27T11:25:26.444Z,1920
2017-03-27T11:26:37.456Z,1925
2017-03-27T11:27:48.483Z,1880
2017-03-27T11:28:59.692Z,1845
2017-03-27T11:30:10.905Z,1820
2017-03-27T11:31:21.917Z,1855
2017-03-27T11:32:32.929Z,1800
2017-03-27T11:33:43.947Z,1695
2017-03-27T11:34:54.959Z,1750
2017-03-27T11:36:06.431Z,1745
2017-03-27T11:37:17.450Z,1680
2017-03-27T11:38:28.466Z,1720
2017-03-27T11:39:39.481Z,1630
2017-03-27T11:40:50.492Z,1620
2017-03-27T11:42:01.711Z,1550
2017-03-27T11:43:12.719Z,1520
2017-03-27T11:44:23.781Z,1520
2017-03-27T11:45:34.810Z,1560
2017-03-27T11:46:46.268Z,1640
2017-03-27T11:47:57.311Z,1590
2017-03-27T11:49:08.551Z,1535
2017-03-27T11:50:19.566Z,1525
2017-03-27T11:51:30.594Z,1735
2017-03-27T11:52:41.620Z,1760
2017-03-27T11:53:52.873Z,1595
2017-03-27T11:55:04.306Z,1425
2017-03-27T11:56:15.326Z,1335
2017-03-27T11:57:26.813Z,1320
2017-03-27T11:58:37.846Z,1305
2017-03-27T11:59:48.852Z,1320
2017-03-27T12:00:59.870Z,1465
2017-03-27T12:02:10.919Z,1465
2017-03-27T12:03:21.978Z,1425
2017-03-27T12:04:33.207Z,1190
2017-03-27T12:05:44.413Z,880
2017-03-27T12:06:55.621Z,865
2017-03-27T12:08:06.885Z,910
2017-03-27T12:09:17.893Z,905
2017-03-27T12:10:28.916Z,925
2017-03-27T12:11:39.923Z,990
2017-03-27T12:12:50.933Z,1080
2017-03-27T12:14:01.906Z,1100
2017-03-27T12:15:12.914Z,1165
2017-03-27T12:16:23.957Z,1225
2017-03-27T12:17:34.962Z,1280
2017-03-27T12:18:46.221Z,1290
2017-03-27T12:19:57.250Z,1300
2017-03-27T12:21:08.293Z,1290
2017-03-27T12:22:19.504Z,1220
2017-03-27T12:23:30.522Z,1195
2017-03-27T12:24:41.743Z,1160
2017-03-27T12:25:52.776Z,1115
2017-03-27T12:27:03.785Z,1115
2017-03-27T12:28:14.793Z,1105
2017-03-27T12:29:26.103Z,1085
2017-03-27T12:30:37.103Z,1055
2017-03-27T12:31:48.154Z,1040
2017-03-27T12:32:59.191Z,1025
2017-03-27T12:34:10.227Z,980
2017-03-27T12:35:21.435Z,935
2017-03-27T12:36:32.481Z,840
2017-03-27T12:37:43.533Z,785
2017-03-27T12:38:54.791Z,740
2017-03-27T12:40:06.066Z,740
2017-03-27T12:41:17.093Z,765
2017-03-27T12:42:28.134Z,650
2017-03-27T12:43:39.146Z,630
2017-03-27T12:44:50.375Z,660
2017-03-27T12:46:01.373Z,630
2017-03-27T12:47:12.376Z,575
2017-03-27T12:48:23.426Z,570
2017-03-27T12:49:34.468Z,545
2017-03-27T12:50:45.539Z,660
2017-03-27T12:51:56.735Z,610
2017-03-27T12:53:07.752Z,550
2017-03-27T12:54:18.974Z,660
2017-03-27T12:55:30.030Z,635
2017-03-27T12:56:41.038Z,590
2017-03-27T12:57:52.070Z,600
2017-03-27T12:59:03.481Z,605
2017-03-27T13:00:14.492Z,580
2017-03-27T13:01:25.574Z,535
2017-03-27T13:02:36.602Z,490
2017-03-27T13:03:47.607Z,500
2017-03-27T13:04:58.614Z,545
2017-03-27T13:06:09.623Z,535
2017-03-27T13:07:20.619Z,450
2017-03-27T13:08:31.830Z,480
2017-03-27T13:09:42.840Z,480
2017-03-27T13:10:53.840Z,485
2017-03-27T13:12:05.323Z,485
2017-03-27T13:13:16.547Z,470
2017-03-27T13:14:27.551Z,445
2017-03-27T13:15:38.549Z,420
2017-03-27T13:16:49.749Z,390
2017-03-27T13:18:00.758Z,445
2017-03-27T13:19:11.805Z,390
2017-03-27T13:20:22.800Z,400
2017-03-27T13:21:33.815Z,450
2017-03-27T13:22:45.037Z,385
2017-03-27T13:23:56.232Z,295
2017-03-27T13:25:07.249Z,355
2017-03-27T13:26:18.256Z,395
2017-03-27T13:27:29.505Z,335
2017-03-27T13:28:40.512Z,335
2017-03-27T13:29:51.512Z,390
2017-03-27T13:31:02.510Z,440
2017-03-27T13:32:13.509Z,405
2017-03-27T13:33:24.532Z,395
2017-03-27T13:34:35.746Z,340
2017-03-27T13:35:46.748Z,300
2017-03-27T13:36:57.774Z,315
2017-03-27T13:38:09.024Z,340
2017-03-27T13:39:20.032Z,340
2017-03-27T13:40:31.032Z,320
2017-03-27T13:41:42.235Z,325
2017-03-27T13:42:53.444Z,320
2017-03-27T13:44:04.451Z,310
2017-03-27T13:45:15.462Z,315
2017-03-27T13:46:26.465Z,315
2017-03-27T13:47:37.666Z,310
2017-03-27T13:48:48.935Z,300
2017-03-27T13:49:59.956Z,285
2017-03-27T13:51:10.956Z,310
2017-03-27T13:52:21.953Z,325
2017-03-27T13:53:33.143Z,325
2017-03-27T13:54:44.141Z,320
2017-03-27T13:55:55.136Z,320
2017-03-27T13:57:06.149Z,320
2017-03-27T13:58:17.555Z,320
2017-03-27T13:59:28.844Z,345
2017-03-27T14:00:40.040Z,350
2017-03-27T14:01:51.035Z,340
2017-03-27T14:03:02.022Z,350
2017-03-27T14:04:13.424Z,355
2017-03-27T14:05:24.443Z,365
2017-03-27T14:06:35.443Z,355
2017-03-27T14:07:46.439Z,355
2017-03-27T14:08:57.866Z,375
2017-03-27T14:10:09.117Z,375
2017-03-27T14:11:20.310Z,380
2017-03-27T14:12:31.704Z,375
2017-03-27T14:13:42.704Z,370
2017-03-27T14:14:54.118Z,375
2017-03-27T14:16:05.121Z,365
2017-03-27T14:17:16.724Z,360
2017-03-27T14:18:27.737Z,355
2017-03-27T14:19:38.744Z,320
2017-03-27T14:20:49.787Z,300
2017-03-27T14:22:00.783Z,295
2017-03-27T14:23:11.785Z,295
2017-03-27T14:24:22.986Z,295
2017-03-27T14:25:34.186Z,290
2017-03-27T14:26:45.386Z,285
2017-03-27T14:27:56.395Z,280
2017-03-27T14:29:07.593Z,275
2017-03-27T14:30:18.594Z,265
2017-03-27T14:31:29.656Z,255
2017-03-27T14:32:40.650Z,245
2017-03-27T14:33:51.651Z,245
2017-03-27T14:35:02.861Z,245
2017-03-27T14:36:13.873Z,240
2017-03-27T14:37:24.876Z,240
2017-03-27T14:38:35.873Z,240
2017-03-27T14:39:47.074Z,235
2017-03-27T14:40:58.090Z,240
2017-03-27T14:42:09.297Z,235
2017-03-27T14:43:20.292Z,235
2017-03-27T14:44:31.302Z,230
2017-03-27T14:45:42.295Z,230
2017-03-27T14:46:53.311Z,230
2017-03-27T14:48:04.561Z,230
2017-03-27T14:49:15.574Z,225
2017-03-27T14:50:26.796Z,225
2017-03-27T14:51:37.789Z,225
2017-03-27T14:52:49.000Z,225
2017-03-27T14:54:00.391Z,220
2017-03-27T14:55:11.419Z,220
2017-03-27T14:56:22.421Z,220
2017-03-27T14:57:33.429Z,220
2017-03-27T14:58:45.086Z,220
2017-03-27T14:59:56.091Z,220
2017-03-27T15:01:07.092Z,220
2017-03-27T15:02:18.110Z,220
2017-03-27T15:03:29.121Z,225
2017-03-27T15:04:40.144Z,215
2017-03-27T15:05:51.141Z,215
2017-03-27T15:07:02.144Z,215
2017-03-27T15:08:13.141Z,210
2017-03-27T15:09:24.395Z,210
2017-03-27T15:10:35.393Z,210
2017-03-27T15:11:46.402Z,210
2017-03-27T15:12:57.406Z,210
2017-03-27T15:14:08.414Z,205
2017-03-27T15:15:19.614Z,205
2017-03-27T15:16:30.817Z,205
2017-03-27T15:17:41.819Z,210
2017-03-27T15:18:52.823Z,205
2017-03-27T15:20:03.831Z,200
2017-03-27T15:21:14.819Z,200
2017-03-27T15:22:26.023Z,200
2017-03-27T15:23:37.025Z,200
2017-03-27T15:24:48.028Z,195
2017-03-27T15:25:59.023Z,200
2017-03-27T15:27:10.220Z,200
2017-03-27T15:28:21.217Z,200
2017-03-27T15:29:32.218Z,200
2017-03-27T15:30:43.467Z,195
2017-03-27T15:31:54.474Z,195
2017-03-27T15:33:05.692Z,195
2017-03-27T15:34:16.688Z,195
2017-03-27T15:35:27.677Z,190
2017-03-27T15:36:38.671Z,190
2017-03-27T15:37:49.675Z,190
2017-03-27T15:39:00.677Z,190
2017-03-27T15:40:12.069Z,190
2017-03-27T15:41:23.323Z,185
2017-03-27T15:42:34.318Z,185
2017-03-27T15:43:45.317Z,185
2017-03-27T15:44:56.319Z,185
2017-03-27T15:46:07.513Z,185
2017-03-27T15:47:18.511Z,180
2017-03-27T15:48:29.513Z,180
2017-03-27T15:49:40.508Z,180
2017-03-27T15:50:51.700Z,180
2017-03-27T15:52:02.698Z,180
2017-03-27T15:53:13.719Z,175
2017-03-27T15:54:24.731Z,175
2017-03-27T15:55:35.954Z,175
2017-03-27T15:56:46.953Z,175
2017-03-27T15:57:58.402Z,175
2017-03-27T15:59:09.798Z,170
2017-03-27T16:00:20.800Z,170
2017-03-27T16:01:31.787Z,170
2017-03-27T16:02:42.994Z,170
2017-03-27T16:03:54.199Z,170
2017-03-27T16:05:05.205Z,165
2017-03-27T16:06:16.205Z,165
2017-03-27T16:07:27.411Z,165
2017-03-27T16:08:38.418Z,165
2017-03-27T16:09:49.405Z,165
2017-03-27T16:11:00.423Z,170
2017-03-27T16:12:11.413Z,160
2017-03-27T16:13:22.414Z,160
2017-03-27T16:14:33.621Z,165
2017-03-27T16:15:44.620Z,160
2017-03-27T16:16:55.620Z,160
2017-03-27T16:18:06.640Z,160
2017-03-27T16:19:17.643Z,160
2017-03-27T16:20:28.640Z,155
2017-03-27T16:21:39.633Z,155
2017-03-27T16:22:50.890Z,155
2017-03-27T16:24:01.894Z,150
2017-03-27T16:25:12.893Z,150
2017-03-27T16:26:23.899Z,150
2017-03-27T16:27:34.908Z,150
2017-03-27T16:28:45.912Z,150